sensor_id;sensor_type;location;lat;lon;timestamp;P1;durP1;ratioP1;P2;durP2;ratioP2
20838;SDS011;10580;51.092;6.828;2022-08-03T00:00:40;0.00;;;0.00;;
20838;SDS011;10580;51.092;6.828;2022-08-03T00:03:06;0.00;;;0.00;;
20838;SDS011;10580;51.092;6.828;2022-08-03T00:05:32;0.00;;;0.00;;
20838;SDS011;10580;51.092;6.828;2022-08-03T00:07:58;0.00;;;0.00;;
20838;SDS011;10580;51.092;6.828;2022-08-03T00:10:24;0.00;;;0.00;;
20838;SDS011;10580;51.092;6.828;2022-08-03T00:12:50;0.00;;;0.00;;
20838;SDS011;10580;51.092;6.828;2022-08-03T00:15:16;0.00;;;0.00;;
20838;SDS011;10580;51.092;6.828;2022-08-03T00:17:43;0.00;;;0.00;;
20838;SDS011;10580;51.092;6.828;2022-08-03T00:20:09;0.00;;;0.00;;
20838;SDS011;10580;51.092;6.828;2022-08-03T00:22:35;0.00;;;0.00;;
20838;SDS011;10580;51.092;6.828;2022-08-03T00:25:00;0.00;;;0.00;;
20838;SDS011;10580;51.092;6.828;2022-08-03T00:27:26;0.00;;;0.00;;
20838;SDS011;10580;51.092;6.828;2022-08-03T00:29:51;0.00;;;0.00;;
20838;SDS011;10580;51.092;6.828;2022-08-03T00:32:17;0.00;;;0.00;;
20838;SDS011;10580;51.092;6.828;2022-08-03T00:34:43;0.00;;;0.00;;
20838;SDS011;10580;51.092;6.828;2022-08-03T00:37:08;0.00;;;0.00;;
20838;SDS011;10580;51.092;6.828;2022-08-03T00:39:34;0.00;;;0.00;;
20838;SDS011;10580;51.092;6.828;2022-08-03T00:42:03;0.00;;;0.00;;
20838;SDS011;10580;51.092;6.828;2022-08-03T00:44:29;0.00;;;0.00;;
20838;SDS011;10580;51.092;6.828;2022-08-03T00:46:55;0.00;;;0.00;;
20838;SDS011;10580;51.092;6.828;2022-08-03T00:49:21;0.00;;;0.00;;
20838;SDS011;10580;51.092;6.828;2022-08-03T00:51:47;0.00;;;0.00;;
20838;SDS011;10580;51.092;6.828;2022-08-03T00:54:13;0.00;;;0.00;;
20838;SDS011;10580;51.092;6.828;2022-08-03T00:56:39;0.00;;;0.00;;
20838;SDS011;10580;51.092;6.828;2022-08-03T00:59:06;0.00;;;0.00;;
20838;SDS011;10580;51.092;6.828;2022-08-03T01:01:34;0.00;;;0.00;;
20838;SDS011;10580;51.092;6.828;2022-08-03T01:04:00;0.00;;;0.00;;
20838;SDS011;10580;51.092;6.828;2022-08-03T01:06:33;0.00;;;0.00;;
20838;SDS011;10580;51.092;6.828;2022-08-03T01:09:34;0.00;;;0.00;;
20838;SDS011;10580;51.092;6.828;2022-08-03T01:17:59;0.00;;;0.00;;
20838;SDS011;10580;51.092;6.828;2022-08-03T01:20:37;0.00;;;0.00;;
20838;SDS011;10580;51.092;6.828;2022-08-03T01:32:25;0.00;;;0.00;;
20838;SDS011;10580;51.092;6.828;2022-08-03T01:35:03;0.00;;;0.00;;
20838;SDS011;10580;51.092;6.828;2022-08-03T01:37:37;0.00;;;0.00;;
20838;SDS011;10580;51.092;6.828;2022-08-03T01:40:18;0.00;;;0.00;;
20838;SDS011;10580;51.092;6.828;2022-08-03T01:42:46;0.00;;;0.00;;
20838;SDS011;10580;51.092;6.828;2022-08-03T01:45:14;0.00;;;0.00;;
20838;SDS011;10580;51.092;6.828;2022-08-03T01:47:42;0.00;;;0.00;;
20838;SDS011;10580;51.092;6.828;2022-08-03T01:50:09;0.00;;;0.00;;
20838;SDS011;10580;51.092;6.828;2022-08-03T01:52:38;0.00;;;0.00;;
20838;SDS011;10580;51.092;6.828;2022-08-03T01:55:06;0.00;;;0.00;;
20838;SDS011;10580;51.092;6.828;2022-08-03T01:57:33;0.00;;;0.00;;
20838;SDS011;10580;51.092;6.828;2022-08-03T02:00:00;0.00;;;0.00;;
20838;SDS011;10580;51.092;6.828;2022-08-03T02:02:27;0.00;;;0.00;;
20838;SDS011;10580;51.092;6.828;2022-08-03T02:04:55;0.00;;;0.00;;
20838;SDS011;10580;51.092;6.828;2022-08-03T02:07:22;0.00;;;0.00;;
20838;SDS011;10580;51.092;6.828;2022-08-03T02:09:50;0.00;;;0.00;;
20838;SDS011;10580;51.092;6.828;2022-08-03T02:12:18;0.00;;;0.00;;
20838;SDS011;10580;51.092;6.828;2022-08-03T02:14:44;0.00;;;0.00;;
20838;SDS011;10580;51.092;6.828;2022-08-03T02:17:12;0.00;;;0.00;;
20838;SDS011;10580;51.092;6.828;2022-08-03T02:19:39;0.00;;;0.00;;
20838;SDS011;10580;51.092;6.828;2022-08-03T02:22:07;0.00;;;0.00;;
20838;SDS011;10580;51.092;6.828;2022-08-03T02:24:35;0.00;;;0.00;;
20838;SDS011;10580;51.092;6.828;2022-08-03T02:27:01;0.00;;;0.00;;
20838;SDS011;10580;51.092;6.828;2022-08-03T02:29:40;0.00;;;0.00;;
20838;SDS011;10580;51.092;6.828;2022-08-03T02:32:15;0.00;;;0.00;;
20838;SDS011;10580;51.092;6.828;2022-08-03T02:34:45;0.00;;;0.00;;
20838;SDS011;10580;51.092;6.828;2022-08-03T02:37:16;0.00;;;0.00;;
20838;SDS011;10580;51.092;6.828;2022-08-03T02:39:43;0.00;;;0.00;;
20838;SDS011;10580;51.092;6.828;2022-08-03T02:42:11;0.00;;;0.00;;
20838;SDS011;10580;51.092;6.828;2022-08-03T02:44:41;0.00;;;0.00;;
20838;SDS011;10580;51.092;6.828;2022-08-03T02:47:18;0.00;;;0.00;;
20838;SDS011;10580;51.092;6.828;2022-08-03T02:49:45;0.00;;;0.00;;
20838;SDS011;10580;51.092;6.828;2022-08-03T02:52:13;0.00;;;0.00;;
20838;SDS011;10580;51.092;6.828;2022-08-03T02:54:41;0.00;;;0.00;;
20838;SDS011;10580;51.092;6.828;2022-08-03T02:57:08;0.00;;;0.00;;
20838;SDS011;10580;51.092;6.828;2022-08-03T02:59:35;0.00;;;0.00;;
20838;SDS011;10580;51.092;6.828;2022-08-03T03:02:02;0.00;;;0.00;;
20838;SDS011;10580;51.092;6.828;2022-08-03T03:04:28;0.00;;;0.00;;
20838;SDS011;10580;51.092;6.828;2022-08-03T03:06:55;0.00;;;0.00;;
20838;SDS011;10580;51.092;6.828;2022-08-03T03:09:22;0.00;;;0.00;;
20838;SDS011;10580;51.092;6.828;2022-08-03T03:11:48;0.00;;;0.00;;
20838;SDS011;10580;51.092;6.828;2022-08-03T03:14:16;0.00;;;0.00;;
20838;SDS011;10580;51.092;6.828;2022-08-03T03:16:43;0.00;;;0.00;;
20838;SDS011;10580;51.092;6.828;2022-08-03T03:19:11;0.00;;;0.00;;
20838;SDS011;10580;51.092;6.828;2022-08-03T03:21:38;0.00;;;0.00;;
20838;SDS011;10580;51.092;6.828;2022-08-03T03:24:04;0.00;;;0.00;;
20838;SDS011;10580;51.092;6.828;2022-08-03T03:26:32;0.00;;;0.00;;
20838;SDS011;10580;51.092;6.828;2022-08-03T03:28:58;0.00;;;0.00;;
20838;SDS011;10580;51.092;6.828;2022-08-03T03:31:25;0.00;;;0.00;;
20838;SDS011;10580;51.092;6.828;2022-08-03T03:33:51;0.00;;;0.00;;
20838;SDS011;10580;51.092;6.828;2022-08-03T03:36:17;0.00;;;0.00;;
20838;SDS011;10580;51.092;6.828;2022-08-03T03:38:43;0.00;;;0.00;;
20838;SDS011;10580;51.092;6.828;2022-08-03T03:41:08;0.00;;;0.00;;
20838;SDS011;10580;51.092;6.828;2022-08-03T03:43:34;0.00;;;0.00;;
20838;SDS011;10580;51.092;6.828;2022-08-03T03:46:00;0.00;;;0.00;;
20838;SDS011;10580;51.092;6.828;2022-08-03T03:48:26;0.00;;;0.00;;
20838;SDS011;10580;51.092;6.828;2022-08-03T03:50:52;0.00;;;0.00;;
20838;SDS011;10580;51.092;6.828;2022-08-03T03:53:18;0.00;;;0.00;;
20838;SDS011;10580;51.092;6.828;2022-08-03T03:55:44;0.00;;;0.00;;
20838;SDS011;10580;51.092;6.828;2022-08-03T03:58:10;0.00;;;0.00;;
20838;SDS011;10580;51.092;6.828;2022-08-03T04:00:35;0.00;;;0.00;;
20838;SDS011;10580;51.092;6.828;2022-08-03T04:03:01;0.00;;;0.00;;
20838;SDS011;10580;51.092;6.828;2022-08-03T04:05:27;0.00;;;0.00;;
20838;SDS011;10580;51.092;6.828;2022-08-03T04:08:13;0.00;;;0.00;;
20838;SDS011;10580;51.092;6.828;2022-08-03T04:11:13;0.00;;;0.00;;
20838;SDS011;10580;51.092;6.828;2022-08-03T04:13:57;0.00;;;0.00;;
20838;SDS011;10580;51.092;6.828;2022-08-03T04:16:37;0.00;;;0.00;;
20838;SDS011;10580;51.092;6.828;2022-08-03T04:19:10;0.00;;;0.00;;
20838;SDS011;10580;51.092;6.828;2022-08-03T04:21:42;0.00;;;0.00;;
20838;SDS011;10580;51.092;6.828;2022-08-03T04:24:10;0.00;;;0.00;;
20838;SDS011;10580;51.092;6.828;2022-08-03T04:26:39;0.00;;;0.00;;
20838;SDS011;10580;51.092;6.828;2022-08-03T04:29:07;0.00;;;0.00;;
20838;SDS011;10580;51.092;6.828;2022-08-03T04:31:34;0.00;;;0.00;;
20838;SDS011;10580;51.092;6.828;2022-08-03T04:34:02;0.00;;;0.00;;
20838;SDS011;10580;51.092;6.828;2022-08-03T04:36:30;0.00;;;0.00;;
20838;SDS011;10580;51.092;6.828;2022-08-03T04:41:32;0.00;;;0.00;;
20838;SDS011;10580;51.092;6.828;2022-08-03T04:44:00;0.00;;;0.00;;
20838;SDS011;10580;51.092;6.828;2022-08-03T04:46:28;0.00;;;0.00;;
20838;SDS011;10580;51.092;6.828;2022-08-03T04:48:58;0.00;;;0.00;;
20838;SDS011;10580;51.092;6.828;2022-08-03T04:51:24;0.00;;;0.00;;
20838;SDS011;10580;51.092;6.828;2022-08-03T04:53:50;0.00;;;0.00;;
20838;SDS011;10580;51.092;6.828;2022-08-03T04:56:16;0.00;;;0.00;;
20838;SDS011;10580;51.092;6.828;2022-08-03T04:58:41;0.00;;;0.00;;
20838;SDS011;10580;51.092;6.828;2022-08-03T05:01:07;0.00;;;0.00;;
20838;SDS011;10580;51.092;6.828;2022-08-03T05:03:33;0.00;;;0.00;;
20838;SDS011;10580;51.092;6.828;2022-08-03T05:05:59;0.00;;;0.00;;
20838;SDS011;10580;51.092;6.828;2022-08-03T05:08:24;0.00;;;0.00;;
20838;SDS011;10580;51.092;6.828;2022-08-03T05:10:50;0.00;;;0.00;;
20838;SDS011;10580;51.092;6.828;2022-08-03T05:13:15;0.00;;;0.00;;
20838;SDS011;10580;51.092;6.828;2022-08-03T05:15:41;0.00;;;0.00;;
20838;SDS011;10580;51.092;6.828;2022-08-03T05:18:07;0.00;;;0.00;;
20838;SDS011;10580;51.092;6.828;2022-08-03T05:20:32;0.00;;;0.00;;
20838;SDS011;10580;51.092;6.828;2022-08-03T05:22:58;0.00;;;0.00;;
20838;SDS011;10580;51.092;6.828;2022-08-03T05:25:25;0.00;;;0.00;;
20838;SDS011;10580;51.092;6.828;2022-08-03T05:27:52;0.00;;;0.00;;
20838;SDS011;10580;51.092;6.828;2022-08-03T05:30:17;0.00;;;0.00;;
20838;SDS011;10580;51.092;6.828;2022-08-03T05:32:43;0.00;;;0.00;;
20838;SDS011;10580;51.092;6.828;2022-08-03T05:35:09;0.00;;;0.00;;
20838;SDS011;10580;51.092;6.828;2022-08-03T05:37:35;0.00;;;0.00;;
20838;SDS011;10580;51.092;6.828;2022-08-03T05:40:00;0.00;;;0.00;;
20838;SDS011;10580;51.092;6.828;2022-08-03T05:42:26;0.00;;;0.00;;
20838;SDS011;10580;51.092;6.828;2022-08-03T05:44:51;0.00;;;0.00;;
20838;SDS011;10580;51.092;6.828;2022-08-03T05:47:17;0.00;;;0.00;;
20838;SDS011;10580;51.092;6.828;2022-08-03T05:49:43;0.00;;;0.00;;
20838;SDS011;10580;51.092;6.828;2022-08-03T05:52:08;0.00;;;0.00;;
20838;SDS011;10580;51.092;6.828;2022-08-03T05:54:34;0.00;;;0.00;;
20838;SDS011;10580;51.092;6.828;2022-08-03T05:57:00;0.00;;;0.00;;
20838;SDS011;10580;51.092;6.828;2022-08-03T05:59:26;0.00;;;0.00;;
20838;SDS011;10580;51.092;6.828;2022-08-03T06:01:51;0.00;;;0.00;;
20838;SDS011;10580;51.092;6.828;2022-08-03T06:04:17;0.00;;;0.00;;
20838;SDS011;10580;51.092;6.828;2022-08-03T06:06:43;0.00;;;0.00;;
20838;SDS011;10580;51.092;6.828;2022-08-03T06:09:09;0.00;;;0.00;;
20838;SDS011;10580;51.092;6.828;2022-08-03T06:11:35;0.00;;;0.00;;
20838;SDS011;10580;51.092;6.828;2022-08-03T06:14:01;0.00;;;0.00;;
20838;SDS011;10580;51.092;6.828;2022-08-03T06:16:27;0.00;;;0.00;;
20838;SDS011;10580;51.092;6.828;2022-08-03T06:18:52;0.00;;;0.00;;
20838;SDS011;10580;51.092;6.828;2022-08-03T06:21:18;0.00;;;0.00;;
20838;SDS011;10580;51.092;6.828;2022-08-03T06:23:44;0.00;;;0.00;;
20838;SDS011;10580;51.092;6.828;2022-08-03T06:26:10;0.00;;;0.00;;
20838;SDS011;10580;51.092;6.828;2022-08-03T06:28:35;0.00;;;0.00;;
20838;SDS011;10580;51.092;6.828;2022-08-03T06:31:01;0.00;;;0.00;;
20838;SDS011;10580;51.092;6.828;2022-08-03T06:33:27;0.00;;;0.00;;
20838;SDS011;10580;51.092;6.828;2022-08-03T06:35:53;0.00;;;0.00;;
20838;SDS011;10580;51.092;6.828;2022-08-03T06:38:19;0.00;;;0.00;;
20838;SDS011;10580;51.092;6.828;2022-08-03T06:40:44;0.00;;;0.00;;
20838;SDS011;10580;51.092;6.828;2022-08-03T06:43:10;0.00;;;0.00;;
20838;SDS011;10580;51.092;6.828;2022-08-03T06:45:36;0.00;;;0.00;;
20838;SDS011;10580;51.092;6.828;2022-08-03T06:48:08;0.00;;;0.00;;
20838;SDS011;10580;51.092;6.828;2022-08-03T06:50:35;0.00;;;0.00;;
20838;SDS011;10580;51.092;6.828;2022-08-03T06:53:02;0.00;;;0.00;;
20838;SDS011;10580;51.092;6.828;2022-08-03T06:55:28;0.00;;;0.00;;
20838;SDS011;10580;51.092;6.828;2022-08-03T06:57:53;0.00;;;0.00;;
20838;SDS011;10580;51.092;6.828;2022-08-03T07:00:19;0.00;;;0.00;;
20838;SDS011;10580;51.092;6.828;2022-08-03T07:02:46;0.00;;;0.00;;
20838;SDS011;10580;51.092;6.828;2022-08-03T07:05:12;0.00;;;0.00;;
20838;SDS011;10580;51.092;6.828;2022-08-03T07:07:41;0.00;;;0.00;;
20838;SDS011;10580;51.092;6.828;2022-08-03T07:10:07;0.00;;;0.00;;
20838;SDS011;10580;51.092;6.828;2022-08-03T07:12:36;0.00;;;0.00;;
20838;SDS011;10580;51.092;6.828;2022-08-03T07:15:02;0.00;;;0.00;;
20838;SDS011;10580;51.092;6.828;2022-08-03T07:17:37;0.00;;;0.00;;
20838;SDS011;10580;51.092;6.828;2022-08-03T07:20:04;1.47;;;1.47;;
20838;SDS011;10580;51.092;6.828;2022-08-03T07:22:31;1.90;;;1.90;;
20838;SDS011;10580;51.092;6.828;2022-08-03T07:24:56;2.85;;;2.75;;
20838;SDS011;10580;51.092;6.828;2022-08-03T07:27:22;4.90;;;4.70;;
20838;SDS011;10580;51.092;6.828;2022-08-03T07:29:50;9.57;;;9.20;;
20838;SDS011;10580;51.092;6.828;2022-08-03T07:32:16;9.70;;;9.30;;
20838;SDS011;10580;51.092;6.828;2022-08-03T07:34:42;10.05;;;9.65;;
20838;SDS011;10580;51.092;6.828;2022-08-03T07:37:07;10.18;;;9.77;;
20838;SDS011;10580;51.092;6.828;2022-08-03T07:39:33;9.48;;;9.15;;
20838;SDS011;10580;51.092;6.828;2022-08-03T07:42:04;8.52;;;8.23;;
20838;SDS011;10580;51.092;6.828;2022-08-03T07:44:36;10.27;;;9.88;;
20838;SDS011;10580;51.092;6.828;2022-08-03T07:47:06;10.32;;;9.93;;
20838;SDS011;10580;51.092;6.828;2022-08-03T07:49:39;10.40;;;10.00;;
20838;SDS011;10580;51.092;6.828;2022-08-03T07:52:05;10.02;;;9.63;;
20838;SDS011;10580;51.092;6.828;2022-08-03T07:54:49;10.25;;;9.85;;
20838;SDS011;10580;51.092;6.828;2022-08-03T07:57:15;10.20;;;9.80;;
20838;SDS011;10580;51.092;6.828;2022-08-03T07:59:49;10.05;;;9.65;;
20838;SDS011;10580;51.092;6.828;2022-08-03T08:47:30;11.45;;;11.05;;
20838;SDS011;10580;51.092;6.828;2022-08-03T08:59:51;10.80;;;10.40;;
20838;SDS011;10580;51.092;6.828;2022-08-03T09:31:47;10.48;;;10.07;;
20838;SDS011;10580;51.092;6.828;2022-08-03T09:34:13;10.55;;;10.15;;
20838;SDS011;10580;51.092;6.828;2022-08-03T09:36:41;10.35;;;9.95;;
20838;SDS011;10580;51.092;6.828;2022-08-03T09:39:37;10.60;;;10.20;;
20838;SDS011;10580;51.092;6.828;2022-08-03T09:44:54;10.85;;;10.45;;
20838;SDS011;10580;51.092;6.828;2022-08-03T09:47:31;10.45;;;10.05;;
20838;SDS011;10580;51.092;6.828;2022-08-03T09:53:44;10.43;;;10.02;;
20838;SDS011;10580;51.092;6.828;2022-08-03T09:56:50;10.55;;;10.15;;
20838;SDS011;10580;51.092;6.828;2022-08-03T10:03:16;10.25;;;9.85;;
20838;SDS011;10580;51.092;6.828;2022-08-03T10:05:41;10.15;;;9.75;;
20838;SDS011;10580;51.092;6.828;2022-08-03T10:08:13;10.20;;;9.80;;
20838;SDS011;10580;51.092;6.828;2022-08-03T10:10:56;10.10;;;9.70;;
20838;SDS011;10580;51.092;6.828;2022-08-03T10:13:26;10.18;;;9.77;;
20838;SDS011;10580;51.092;6.828;2022-08-03T10:15:52;10.32;;;9.93;;
20838;SDS011;10580;51.092;6.828;2022-08-03T10:18:18;10.25;;;9.85;;
20838;SDS011;10580;51.092;6.828;2022-08-03T10:24:07;10.13;;;9.73;;
20838;SDS011;10580;51.092;6.828;2022-08-03T10:27:12;10.20;;;9.80;;
20838;SDS011;10580;51.092;6.828;2022-08-03T10:30:00;10.02;;;9.63;;
20838;SDS011;10580;51.092;6.828;2022-08-03T10:32:59;10.10;;;9.70;;
20838;SDS011;10580;51.092;6.828;2022-08-03T10:35:29;10.35;;;9.95;;
20838;SDS011;10580;51.092;6.828;2022-08-03T10:38:00;10.02;;;9.63;;
20838;SDS011;10580;51.092;6.828;2022-08-03T10:47:55;10.25;;;9.85;;
20838;SDS011;10580;51.092;6.828;2022-08-03T10:50:25;9.83;;;9.43;;
20838;SDS011;10580;51.092;6.828;2022-08-03T11:01:57;10.18;;;9.77;;
20838;SDS011;10580;51.092;6.828;2022-08-03T11:04:43;10.25;;;9.85;;
20838;SDS011;10580;51.092;6.828;2022-08-03T11:07:41;10.50;;;10.10;;
20838;SDS011;10580;51.092;6.828;2022-08-03T11:10:07;10.50;;;10.10;;
20838;SDS011;10580;51.092;6.828;2022-08-03T11:13:14;10.32;;;9.93;;
20838;SDS011;10580;51.092;6.828;2022-08-03T11:15:41;10.43;;;10.02;;
20838;SDS011;10580;51.092;6.828;2022-08-03T11:18:15;10.20;;;9.80;;
20838;SDS011;10580;51.092;6.828;2022-08-03T11:20:48;10.48;;;10.07;;
20838;SDS011;10580;51.092;6.828;2022-08-03T11:40:00;10.40;;;10.00;;
20838;SDS011;10580;51.092;6.828;2022-08-03T12:40:39;10.60;;;10.20;;
20838;SDS011;10580;51.092;6.828;2022-08-03T12:43:12;10.55;;;10.15;;
20838;SDS011;10580;51.092;6.828;2022-08-03T12:45:38;11.00;;;10.60;;
20838;SDS011;10580;51.092;6.828;2022-08-03T12:48:07;11.00;;;10.60;;
20838;SDS011;10580;51.092;6.828;2022-08-03T12:50:40;11.00;;;10.60;;
20838;SDS011;10580;51.092;6.828;2022-08-03T12:53:06;11.30;;;10.90;;
20838;SDS011;10580;51.092;6.828;2022-08-03T12:55:38;11.20;;;10.80;;
20838;SDS011;10580;51.092;6.828;2022-08-03T12:58:06;11.20;;;10.80;;
20838;SDS011;10580;51.092;6.828;2022-08-03T13:00:34;11.10;;;10.70;;
20838;SDS011;10580;51.092;6.828;2022-08-03T13:03:03;11.10;;;10.70;;
20838;SDS011;10580;51.092;6.828;2022-08-03T13:05:31;11.30;;;10.90;;
20838;SDS011;10580;51.092;6.828;2022-08-03T13:08:22;11.32;;;10.93;;
20838;SDS011;10580;51.092;6.828;2022-08-03T13:10:51;11.00;;;10.60;;
20838;SDS011;10580;51.092;6.828;2022-08-03T13:13:17;11.20;;;10.80;;
20838;SDS011;10580;51.092;6.828;2022-08-03T13:15:44;11.20;;;10.80;;
20838;SDS011;10580;51.092;6.828;2022-08-03T13:18:10;11.27;;;10.88;;
20838;SDS011;10580;51.092;6.828;2022-08-03T13:20:35;11.20;;;10.80;;
20838;SDS011;10580;51.092;6.828;2022-08-03T13:23:01;11.30;;;10.90;;
20838;SDS011;10580;51.092;6.828;2022-08-03T13:25:27;11.10;;;10.70;;
20838;SDS011;10580;51.092;6.828;2022-08-03T13:27:52;11.25;;;10.85;;
20838;SDS011;10580;51.092;6.828;2022-08-03T13:30:18;11.10;;;10.70;;
20838;SDS011;10580;51.092;6.828;2022-08-03T13:32:44;11.10;;;10.70;;
20838;SDS011;10580;51.092;6.828;2022-08-03T13:35:10;11.10;;;10.70;;
20838;SDS011;10580;51.092;6.828;2022-08-03T13:37:36;11.20;;;10.80;;
20838;SDS011;10580;51.092;6.828;2022-08-03T13:40:03;11.20;;;10.80;;
20838;SDS011;10580;51.092;6.828;2022-08-03T13:42:33;11.30;;;10.90;;
20838;SDS011;10580;51.092;6.828;2022-08-03T13:45:00;11.10;;;10.70;;
20838;SDS011;10580;51.092;6.828;2022-08-03T13:47:27;11.25;;;10.85;;
20838;SDS011;10580;51.092;6.828;2022-08-03T13:49:52;11.70;;;11.30;;
20838;SDS011;10580;51.092;6.828;2022-08-03T13:52:21;11.55;;;11.15;;
20838;SDS011;10580;51.092;6.828;2022-08-03T13:54:46;11.18;;;10.77;;
20838;SDS011;10580;51.092;6.828;2022-08-03T13:57:12;11.00;;;10.60;;
20838;SDS011;10580;51.092;6.828;2022-08-03T13:59:38;11.10;;;10.70;;
20838;SDS011;10580;51.092;6.828;2022-08-03T14:02:03;11.32;;;10.93;;
20838;SDS011;10580;51.092;6.828;2022-08-03T14:04:29;11.05;;;10.65;;
20838;SDS011;10580;51.092;6.828;2022-08-03T14:06:55;11.13;;;10.73;;
20838;SDS011;10580;51.092;6.828;2022-08-03T14:09:21;11.10;;;10.70;;
20838;SDS011;10580;51.092;6.828;2022-08-03T14:11:46;11.30;;;10.90;;
20838;SDS011;10580;51.092;6.828;2022-08-03T14:14:12;11.20;;;10.80;;
20838;SDS011;10580;51.092;6.828;2022-08-03T14:16:38;11.23;;;10.82;;
20838;SDS011;10580;51.092;6.828;2022-08-03T14:19:04;11.38;;;10.98;;
20838;SDS011;10580;51.092;6.828;2022-08-03T14:21:31;10.98;;;10.57;;
20838;SDS011;10580;51.092;6.828;2022-08-03T14:23:57;11.20;;;10.80;;
20838;SDS011;10580;51.092;6.828;2022-08-03T14:26:25;10.90;;;10.50;;
20838;SDS011;10580;51.092;6.828;2022-08-03T14:28:51;10.60;;;10.20;;
20838;SDS011;10580;51.092;6.828;2022-08-03T14:31:17;11.10;;;10.70;;
20838;SDS011;10580;51.092;6.828;2022-08-03T14:33:42;11.30;;;10.90;;
20838;SDS011;10580;51.092;6.828;2022-08-03T14:36:08;10.77;;;10.38;;
20838;SDS011;10580;51.092;6.828;2022-08-03T14:38:33;10.77;;;10.38;;
20838;SDS011;10580;51.092;6.828;2022-08-03T14:40:59;10.57;;;10.18;;
20838;SDS011;10580;51.092;6.828;2022-08-03T14:43:24;10.90;;;10.50;;
20838;SDS011;10580;51.092;6.828;2022-08-03T14:45:50;10.60;;;10.20;;
20838;SDS011;10580;51.092;6.828;2022-08-03T14:48:21;10.88;;;10.48;;
20838;SDS011;10580;51.092;6.828;2022-08-03T14:50:51;10.60;;;10.20;;
20838;SDS011;10580;51.092;6.828;2022-08-03T14:53:17;10.70;;;10.30;;
20838;SDS011;10580;51.092;6.828;2022-08-03T14:55:43;11.00;;;10.60;;
20838;SDS011;10580;51.092;6.828;2022-08-03T14:58:10;10.88;;;10.48;;
20838;SDS011;10580;51.092;6.828;2022-08-03T15:00:35;10.90;;;10.50;;
20838;SDS011;10580;51.092;6.828;2022-08-03T15:03:02;10.50;;;10.10;;
20838;SDS011;10580;51.092;6.828;2022-08-03T15:05:28;10.52;;;10.13;;
20838;SDS011;10580;51.092;6.828;2022-08-03T15:07:54;10.32;;;9.93;;
20838;SDS011;10580;51.092;6.828;2022-08-03T15:10:20;10.60;;;10.20;;
20838;SDS011;10580;51.092;6.828;2022-08-03T15:12:45;10.48;;;10.07;;
20838;SDS011;10580;51.092;6.828;2022-08-03T15:15:11;10.48;;;10.07;;
20838;SDS011;10580;51.092;6.828;2022-08-03T15:17:37;10.60;;;10.20;;
20838;SDS011;10580;51.092;6.828;2022-08-03T15:20:03;10.80;;;10.40;;
20838;SDS011;10580;51.092;6.828;2022-08-03T15:22:29;10.73;;;10.32;;
20838;SDS011;10580;51.092;6.828;2022-08-03T15:24:59;10.57;;;10.18;;
20838;SDS011;10580;51.092;6.828;2022-08-03T15:27:24;10.80;;;10.40;;
20838;SDS011;10580;51.092;6.828;2022-08-03T15:29:50;10.50;;;10.10;;
20838;SDS011;10580;51.092;6.828;2022-08-03T15:32:15;10.63;;;10.23;;
20838;SDS011;10580;51.092;6.828;2022-08-03T15:34:43;10.70;;;10.30;;
20838;SDS011;10580;51.092;6.828;2022-08-03T15:37:12;10.90;;;10.50;;
20838;SDS011;10580;51.092;6.828;2022-08-03T15:39:38;10.63;;;10.23;;
20838;SDS011;10580;51.092;6.828;2022-08-03T15:42:03;10.57;;;10.18;;
20838;SDS011;10580;51.092;6.828;2022-08-03T15:44:29;10.90;;;10.50;;
20838;SDS011;10580;51.092;6.828;2022-08-03T15:46:55;10.60;;;10.20;;
20838;SDS011;10580;51.092;6.828;2022-08-03T15:49:20;10.60;;;10.20;;
20838;SDS011;10580;51.092;6.828;2022-08-03T15:51:46;10.60;;;10.20;;
20838;SDS011;10580;51.092;6.828;2022-08-03T15:54:12;10.57;;;10.18;;
20838;SDS011;10580;51.092;6.828;2022-08-03T15:56:37;10.95;;;10.55;;
20838;SDS011;10580;51.092;6.828;2022-08-03T15:59:05;10.45;;;10.05;;
20838;SDS011;10580;51.092;6.828;2022-08-03T16:01:34;10.43;;;10.02;;
20838;SDS011;10580;51.092;6.828;2022-08-03T16:03:59;10.55;;;10.15;;
20838;SDS011;10580;51.092;6.828;2022-08-03T16:06:25;10.40;;;10.00;;
20838;SDS011;10580;51.092;6.828;2022-08-03T16:08:50;10.18;;;9.77;;
20838;SDS011;10580;51.092;6.828;2022-08-03T16:11:16;10.50;;;10.10;;
20838;SDS011;10580;51.092;6.828;2022-08-03T16:13:42;10.43;;;10.02;;
20838;SDS011;10580;51.092;6.828;2022-08-03T16:16:07;10.68;;;10.27;;
20838;SDS011;10580;51.092;6.828;2022-08-03T16:18:33;10.63;;;10.23;;
20838;SDS011;10580;51.092;6.828;2022-08-03T16:20:58;10.50;;;10.10;;
20838;SDS011;10580;51.092;6.828;2022-08-03T16:23:25;10.57;;;10.17;;
20838;SDS011;10580;51.092;6.828;2022-08-03T16:25:51;10.43;;;10.03;;
20838;SDS011;10580;51.092;6.828;2022-08-03T16:28:17;10.33;;;9.93;;
20838;SDS011;10580;51.092;6.828;2022-08-03T16:30:43;10.70;;;10.30;;
20838;SDS011;10580;51.092;6.828;2022-08-03T16:33:11;9.97;;;9.57;;
20838;SDS011;10580;51.092;6.828;2022-08-03T16:35:38;7.77;;;7.47;;
20838;SDS011;10580;51.092;6.828;2022-08-03T16:38:04;10.00;;;9.60;;
20838;SDS011;10580;51.092;6.828;2022-08-03T16:40:30;9.77;;;9.38;;
20838;SDS011;10580;51.092;6.828;2022-08-03T16:42:56;10.23;;;9.83;;
20838;SDS011;10580;51.092;6.828;2022-08-03T16:45:22;10.17;;;9.77;;
20838;SDS011;10580;51.092;6.828;2022-08-03T16:47:48;10.43;;;10.02;;
20838;SDS011;10580;51.092;6.828;2022-08-03T16:50:16;10.50;;;10.10;;
20838;SDS011;10580;51.092;6.828;2022-08-03T16:52:42;10.07;;;9.67;;
20838;SDS011;10580;51.092;6.828;2022-08-03T16:55:08;10.23;;;9.83;;
20838;SDS011;10580;51.092;6.828;2022-08-03T16:57:44;10.17;;;9.77;;
20838;SDS011;10580;51.092;6.828;2022-08-03T17:00:10;10.27;;;9.87;;
20838;SDS011;10580;51.092;6.828;2022-08-03T17:02:36;10.15;;;9.75;;
20838;SDS011;10580;51.092;6.828;2022-08-03T17:05:08;10.13;;;9.73;;
20838;SDS011;10580;51.092;6.828;2022-08-03T17:07:33;10.30;;;9.90;;
20838;SDS011;10580;51.092;6.828;2022-08-03T17:10:02;10.23;;;9.83;;
20838;SDS011;10580;51.092;6.828;2022-08-03T17:12:28;10.30;;;9.90;;
20838;SDS011;10580;51.092;6.828;2022-08-03T17:14:53;9.57;;;9.23;;
20838;SDS011;10580;51.092;6.828;2022-08-03T17:17:26;9.17;;;8.87;;
20838;SDS011;10580;51.092;6.828;2022-08-03T17:19:56;8.73;;;8.43;;
20838;SDS011;10580;51.092;6.828;2022-08-03T17:22:30;2.40;;;2.30;;
20838;SDS011;10580;51.092;6.828;2022-08-03T17:25:04;8.03;;;7.73;;
20838;SDS011;10580;51.092;6.828;2022-08-03T17:27:32;9.60;;;9.23;;
20838;SDS011;10580;51.092;6.828;2022-08-03T17:30:01;5.80;;;5.60;;
20838;SDS011;10580;51.092;6.828;2022-08-03T17:32:28;6.23;;;6.03;;
20838;SDS011;10580;51.092;6.828;2022-08-03T17:34:57;5.43;;;5.23;;
20838;SDS011;10580;51.092;6.828;2022-08-03T17:37:23;4.23;;;4.03;;
20838;SDS011;10580;51.092;6.828;2022-08-03T17:39:53;2.63;;;2.53;;
20838;SDS011;10580;51.092;6.828;2022-08-03T17:42:22;3.83;;;3.73;;
20838;SDS011;10580;51.092;6.828;2022-08-03T17:44:49;3.47;;;3.37;;
20838;SDS011;10580;51.092;6.828;2022-08-03T17:47:15;2.20;;;2.10;;
20838;SDS011;10580;51.092;6.828;2022-08-03T17:49:43;2.00;;;1.97;;
20838;SDS011;10580;51.092;6.828;2022-08-03T17:52:16;2.30;;;2.20;;
20838;SDS011;10580;51.092;6.828;2022-08-03T17:55:14;1.90;;;1.90;;
20838;SDS011;10580;51.092;6.828;2022-08-03T17:57:46;1.60;;;1.60;;
20838;SDS011;10580;51.092;6.828;2022-08-03T18:00:14;1.40;;;1.40;;
20838;SDS011;10580;51.092;6.828;2022-08-03T18:03:07;1.40;;;1.40;;
20838;SDS011;10580;51.092;6.828;2022-08-03T18:05:52;1.60;;;1.60;;
20838;SDS011;10580;51.092;6.828;2022-08-03T18:08:24;1.50;;;1.50;;
20838;SDS011;10580;51.092;6.828;2022-08-03T18:10:55;0.90;;;0.90;;
20838;SDS011;10580;51.092;6.828;2022-08-03T18:16:20;1.50;;;1.50;;